Pagina principale
METAR-TAF:

METAR-TAF

Aeroporti :

Grenchen, Svizzera

latitudine: 47-10-53N, longitudine: 007-24-59E, altezza: 430 m

Osservazione

Il bollettino è stato emesso 16 minuti fa, alle 02:50 UTC
Vento 3 kt da nord-est
Temperature 9°C
Umidità 87%
Pressione 1019 hPa
Visibilità: 5000 m

METAR: LSZG 190250Z AUTO 04003KT 5000 NCD 09/07 Q1019

Ora: 05:06 (03:06 UTC)

Previsione

Il bollettino è stato emesso 12 ore e 41 minuti fa, alle 14:25 UTC
Previsione valida dal 18 alle 15 UTC al 18 alle 24 UTC
Vento 12 kt da est
Visibilità 10 km o più
nessuna nube inferiore a 1500 m e nessun cumulonembo
Probabilità 40%
dal 18 alle 20 UTC al 18 alle 24 UTC
Visibilità: 4500 m
Nuvoloso ad un'altezza di 1200 ft
foschia

TAF: LSZG 181425Z 1815/1824 09012KT CAVOK PROB40 1820/1824 4500 BR BKN012

Osservazioni e previsioni meteorologiche di più di 4000 aeroporti (messaggi METAR e TAF).

Le stazioni disponibili sono rappresentate dai dischi gialli e rossi sulla carta.

Puntare il mouse per vedere il nome della stazione.

Clicca sopra per visualizzare le osservazioni e previsioni meteorologiche.

Per cambiare la mappa : fare clic sui pulsanti verdi con una croce nera per ingrandire, il pulsante verde con un trattino per diminuire, o sulla freccia verde per le mappe adiacenti.


METAR-TAF: